sensor_id;sensor_type;location;lat;lon;timestamp;P1;durP1;ratioP1;P2;durP2;ratioP2
11078;SDS011;5592;49.234;7.268;2022-11-21T00:00:28;10.13;;;2.60;;
11078;SDS011;5592;49.234;7.268;2022-11-21T00:02:58;17.20;;;3.23;;
11078;SDS011;5592;49.234;7.268;2022-11-21T00:05:25;13.93;;;2.63;;
11078;SDS011;5592;49.234;7.268;2022-11-21T00:07:52;16.33;;;2.60;;
11078;SDS011;5592;49.234;7.268;2022-11-21T00:10:19;16.87;;;3.00;;
11078;SDS011;5592;49.234;7.268;2022-11-21T00:12:47;5.67;;;1.90;;
11078;SDS011;5592;49.234;7.268;2022-11-21T00:15:16;4.60;;;2.07;;
11078;SDS011;5592;49.234;7.268;2022-11-21T00:17:42;9.77;;;2.20;;
11078;SDS011;5592;49.234;7.268;2022-11-21T00:20:10;10.70;;;2.10;;
11078;SDS011;5592;49.234;7.268;2022-11-21T00:22:36;9.60;;;2.33;;
11078;SDS011;5592;49.234;7.268;2022-11-21T00:25:02;6.60;;;1.90;;
11078;SDS011;5592;49.234;7.268;2022-11-21T00:27:28;11.90;;;2.43;;
11078;SDS011;5592;49.234;7.268;2022-11-21T00:29:53;2.00;;;1.70;;
11078;SDS011;5592;49.234;7.268;2022-11-21T00:32:19;4.17;;;1.50;;
11078;SDS011;5592;49.234;7.268;2022-11-21T00:34:44;4.83;;;1.30;;
11078;SDS011;5592;49.234;7.268;2022-11-21T00:37:10;3.30;;;1.43;;
11078;SDS011;5592;49.234;7.268;2022-11-21T00:39:38;2.33;;;1.40;;
11078;SDS011;5592;49.234;7.268;2022-11-21T00:42:04;3.90;;;1.37;;
11078;SDS011;5592;49.234;7.268;2022-11-21T00:44:30;8.10;;;1.43;;
11078;SDS011;5592;49.234;7.268;2022-11-21T00:46:55;2.87;;;1.17;;
11078;SDS011;5592;49.234;7.268;2022-11-21T00:49:21;6.03;;;1.50;;
11078;SDS011;5592;49.234;7.268;2022-11-21T00:51:46;1.40;;;1.00;;
11078;SDS011;5592;49.234;7.268;2022-11-21T00:54:12;2.97;;;1.10;;
11078;SDS011;5592;49.234;7.268;2022-11-21T00:56:38;4.60;;;1.33;;
11078;SDS011;5592;49.234;7.268;2022-11-21T00:59:03;5.53;;;1.10;;
11078;SDS011;5592;49.234;7.268;2022-11-21T01:01:29;6.17;;;1.63;;
11078;SDS011;5592;49.234;7.268;2022-11-21T01:03:56;1.37;;;1.00;;
11078;SDS011;5592;49.234;7.268;2022-11-21T01:06:22;4.00;;;1.43;;
11078;SDS011;5592;49.234;7.268;2022-11-21T01:08:50;5.60;;;1.13;;
11078;SDS011;5592;49.234;7.268;2022-11-21T01:11:16;4.87;;;1.20;;
11078;SDS011;5592;49.234;7.268;2022-11-21T01:13:43;4.00;;;1.10;;
11078;SDS011;5592;49.234;7.268;2022-11-21T01:16:14;3.50;;;1.40;;
11078;SDS011;5592;49.234;7.268;2022-11-21T01:18:41;5.13;;;1.17;;
11078;SDS011;5592;49.234;7.268;2022-11-21T01:21:12;6.27;;;1.20;;
11078;SDS011;5592;49.234;7.268;2022-11-21T01:23:40;6.40;;;1.27;;
11078;SDS011;5592;49.234;7.268;2022-11-21T01:26:09;3.27;;;1.37;;
11078;SDS011;5592;49.234;7.268;2022-11-21T01:28:36;2.20;;;1.20;;
11078;SDS011;5592;49.234;7.268;2022-11-21T01:31:02;6.00;;;1.07;;
11078;SDS011;5592;49.234;7.268;2022-11-21T01:33:33;2.67;;;1.30;;
11078;SDS011;5592;49.234;7.268;2022-11-21T01:36:12;2.80;;;1.10;;
11078;SDS011;5592;49.234;7.268;2022-11-21T01:38:46;7.20;;;1.63;;
11078;SDS011;5592;49.234;7.268;2022-11-21T01:41:15;4.00;;;1.20;;
11078;SDS011;5592;49.234;7.268;2022-11-21T01:43:55;2.50;;;1.20;;
11078;SDS011;5592;49.234;7.268;2022-11-21T01:46:21;4.07;;;1.83;;
11078;SDS011;5592;49.234;7.268;2022-11-21T01:56:43;4.23;;;1.33;;
11078;SDS011;5592;49.234;7.268;2022-11-21T01:59:20;2.87;;;1.20;;
11078;SDS011;5592;49.234;7.268;2022-11-21T02:01:59;2.67;;;1.57;;
11078;SDS011;5592;49.234;7.268;2022-11-21T02:04:28;3.00;;;1.30;;
11078;SDS011;5592;49.234;7.268;2022-11-21T02:06:55;4.13;;;1.50;;
11078;SDS011;5592;49.234;7.268;2022-11-21T02:09:25;3.77;;;1.40;;
11078;SDS011;5592;49.234;7.268;2022-11-21T02:11:54;1.50;;;1.07;;
11078;SDS011;5592;49.234;7.268;2022-11-21T02:14:23;2.50;;;1.37;;
11078;SDS011;5592;49.234;7.268;2022-11-21T02:16:50;6.30;;;1.50;;
11078;SDS011;5592;49.234;7.268;2022-11-21T02:19:26;2.27;;;1.40;;
11078;SDS011;5592;49.234;7.268;2022-11-21T02:22:37;3.50;;;1.33;;
11078;SDS011;5592;49.234;7.268;2022-11-21T02:25:00;2.70;;;1.10;;
11078;SDS011;5592;49.234;7.268;2022-11-21T02:27:28;4.73;;;1.60;;
11078;SDS011;5592;49.234;7.268;2022-11-21T02:29:53;5.20;;;1.20;;
11078;SDS011;5592;49.234;7.268;2022-11-21T02:32:20;4.00;;;1.47;;
11078;SDS011;5592;49.234;7.268;2022-11-21T02:34:55;3.97;;;1.30;;
11078;SDS011;5592;49.234;7.268;2022-11-21T02:37:21;3.37;;;1.23;;
11078;SDS011;5592;49.234;7.268;2022-11-21T02:39:47;7.80;;;1.57;;
11078;SDS011;5592;49.234;7.268;2022-11-21T02:42:16;3.10;;;1.50;;
11078;SDS011;5592;49.234;7.268;2022-11-21T02:44:52;4.73;;;1.20;;
11078;SDS011;5592;49.234;7.268;2022-11-21T02:47:29;3.60;;;1.60;;
11078;SDS011;5592;49.234;7.268;2022-11-21T02:50:12;3.67;;;1.40;;
11078;SDS011;5592;49.234;7.268;2022-11-21T02:52:40;4.80;;;1.40;;
11078;SDS011;5592;49.234;7.268;2022-11-21T02:55:06;3.43;;;1.50;;
11078;SDS011;5592;49.234;7.268;2022-11-21T02:57:41;2.47;;;1.50;;
11078;SDS011;5592;49.234;7.268;2022-11-21T03:00:07;3.90;;;1.50;;
11078;SDS011;5592;49.234;7.268;2022-11-21T03:02:41;5.40;;;1.70;;
11078;SDS011;5592;49.234;7.268;2022-11-21T03:05:07;3.20;;;1.47;;
11078;SDS011;5592;49.234;7.268;2022-11-21T03:07:35;5.03;;;2.20;;
11078;SDS011;5592;49.234;7.268;2022-11-21T03:10:01;2.03;;;1.20;;
11078;SDS011;5592;49.234;7.268;2022-11-21T03:12:27;2.60;;;1.67;;
11078;SDS011;5592;49.234;7.268;2022-11-21T03:14:52;5.17;;;1.73;;
11078;SDS011;5592;49.234;7.268;2022-11-21T03:17:18;3.13;;;1.73;;
11078;SDS011;5592;49.234;7.268;2022-11-21T03:19:46;6.80;;;1.50;;
11078;SDS011;5592;49.234;7.268;2022-11-21T03:22:12;2.77;;;1.40;;
11078;SDS011;5592;49.234;7.268;2022-11-21T03:24:39;10.13;;;1.80;;
11078;SDS011;5592;49.234;7.268;2022-11-21T03:27:04;9.77;;;1.60;;
11078;SDS011;5592;49.234;7.268;2022-11-21T03:29:30;8.77;;;1.70;;
11078;SDS011;5592;49.234;7.268;2022-11-21T03:31:58;3.37;;;1.37;;
11078;SDS011;5592;49.234;7.268;2022-11-21T03:34:24;5.33;;;1.60;;
11078;SDS011;5592;49.234;7.268;2022-11-21T03:36:51;5.17;;;1.50;;
11078;SDS011;5592;49.234;7.268;2022-11-21T03:39:17;4.57;;;2.17;;
11078;SDS011;5592;49.234;7.268;2022-11-21T03:41:43;6.30;;;1.50;;
11078;SDS011;5592;49.234;7.268;2022-11-21T03:44:09;2.67;;;1.30;;
11078;SDS011;5592;49.234;7.268;2022-11-21T03:46:40;6.03;;;1.67;;
11078;SDS011;5592;49.234;7.268;2022-11-21T03:49:07;3.93;;;1.50;;
11078;SDS011;5592;49.234;7.268;2022-11-21T03:51:33;7.87;;;1.80;;
11078;SDS011;5592;49.234;7.268;2022-11-21T03:54:00;10.60;;;2.37;;
11078;SDS011;5592;49.234;7.268;2022-11-21T03:56:28;3.20;;;1.70;;
11078;SDS011;5592;49.234;7.268;2022-11-21T03:58:54;9.43;;;2.10;;
11078;SDS011;5592;49.234;7.268;2022-11-21T04:01:20;10.03;;;1.63;;
11078;SDS011;5592;49.234;7.268;2022-11-21T04:03:46;8.47;;;2.00;;
11078;SDS011;5592;49.234;7.268;2022-11-21T04:06:16;3.80;;;1.90;;
11078;SDS011;5592;49.234;7.268;2022-11-21T04:08:43;7.47;;;1.93;;
11078;SDS011;5592;49.234;7.268;2022-11-21T04:11:08;8.03;;;2.33;;
11078;SDS011;5592;49.234;7.268;2022-11-21T04:13:34;10.93;;;2.20;;
11078;SDS011;5592;49.234;7.268;2022-11-21T04:16:03;8.83;;;2.33;;
11078;SDS011;5592;49.234;7.268;2022-11-21T04:18:29;6.73;;;2.23;;
11078;SDS011;5592;49.234;7.268;2022-11-21T04:20:58;11.80;;;2.00;;
11078;SDS011;5592;49.234;7.268;2022-11-21T04:23:30;7.33;;;2.00;;
11078;SDS011;5592;49.234;7.268;2022-11-21T04:25:55;11.93;;;4.00;;
11078;SDS011;5592;49.234;7.268;2022-11-21T04:28:23;7.93;;;2.40;;
11078;SDS011;5592;49.234;7.268;2022-11-21T04:30:53;4.33;;;2.23;;
11078;SDS011;5592;49.234;7.268;2022-11-21T04:33:18;5.67;;;2.00;;
11078;SDS011;5592;49.234;7.268;2022-11-21T04:35:44;8.63;;;1.93;;
11078;SDS011;5592;49.234;7.268;2022-11-21T04:38:11;7.27;;;2.10;;
11078;SDS011;5592;49.234;7.268;2022-11-21T04:40:37;9.93;;;2.00;;
11078;SDS011;5592;49.234;7.268;2022-11-21T04:43:03;9.43;;;2.57;;
11078;SDS011;5592;49.234;7.268;2022-11-21T04:45:29;7.67;;;2.17;;
11078;SDS011;5592;49.234;7.268;2022-11-21T04:47:57;5.00;;;1.50;;
11078;SDS011;5592;49.234;7.268;2022-11-21T04:50:23;4.60;;;2.00;;
11078;SDS011;5592;49.234;7.268;2022-11-21T04:52:49;10.57;;;2.93;;
11078;SDS011;5592;49.234;7.268;2022-11-21T04:55:16;11.13;;;2.10;;
11078;SDS011;5592;49.234;7.268;2022-11-21T04:57:42;12.30;;;2.20;;
11078;SDS011;5592;49.234;7.268;2022-11-21T05:00:08;6.73;;;2.07;;
11078;SDS011;5592;49.234;7.268;2022-11-21T05:02:34;5.93;;;2.07;;
11078;SDS011;5592;49.234;7.268;2022-11-21T05:05:02;10.03;;;2.03;;
11078;SDS011;5592;49.234;7.268;2022-11-21T05:07:28;7.37;;;2.07;;
11078;SDS011;5592;49.234;7.268;2022-11-21T05:09:54;6.50;;;2.67;;
11078;SDS011;5592;49.234;7.268;2022-11-21T05:12:20;11.87;;;2.30;;
11078;SDS011;5592;49.234;7.268;2022-11-21T05:15:04;9.77;;;2.43;;
11078;SDS011;5592;49.234;7.268;2022-11-21T05:17:30;7.03;;;2.20;;
11078;SDS011;5592;49.234;7.268;2022-11-21T05:19:55;8.63;;;1.73;;
11078;SDS011;5592;49.234;7.268;2022-11-21T05:22:21;14.70;;;2.80;;
11078;SDS011;5592;49.234;7.268;2022-11-21T05:24:46;7.63;;;2.20;;
11078;SDS011;5592;49.234;7.268;2022-11-21T05:27:12;6.53;;;2.20;;
11078;SDS011;5592;49.234;7.268;2022-11-21T05:29:40;5.97;;;1.90;;
11078;SDS011;5592;49.234;7.268;2022-11-21T05:32:05;10.10;;;2.27;;
11078;SDS011;5592;49.234;7.268;2022-11-21T05:34:31;7.67;;;2.00;;
11078;SDS011;5592;49.234;7.268;2022-11-21T05:36:56;8.03;;;2.20;;
11078;SDS011;5592;49.234;7.268;2022-11-21T05:39:23;9.57;;;2.10;;
11078;SDS011;5592;49.234;7.268;2022-11-21T05:41:49;12.37;;;2.93;;
11078;SDS011;5592;49.234;7.268;2022-11-21T05:44:14;6.43;;;1.60;;
11078;SDS011;5592;49.234;7.268;2022-11-21T05:46:42;7.33;;;2.10;;
11078;SDS011;5592;49.234;7.268;2022-11-21T05:49:08;4.13;;;1.70;;
11078;SDS011;5592;49.234;7.268;2022-11-21T05:51:34;7.60;;;1.77;;
11078;SDS011;5592;49.234;7.268;2022-11-21T05:54:02;3.90;;;1.77;;
11078;SDS011;5592;49.234;7.268;2022-11-21T05:56:29;7.10;;;1.90;;
11078;SDS011;5592;49.234;7.268;2022-11-21T05:58:55;10.50;;;2.57;;
11078;SDS011;5592;49.234;7.268;2022-11-21T06:01:21;11.00;;;1.80;;
11078;SDS011;5592;49.234;7.268;2022-11-21T06:04:06;8.23;;;2.07;;
11078;SDS011;5592;49.234;7.268;2022-11-21T06:06:33;15.13;;;1.90;;
11078;SDS011;5592;49.234;7.268;2022-11-21T06:08:59;3.70;;;1.50;;
11078;SDS011;5592;49.234;7.268;2022-11-21T06:11:25;7.70;;;1.77;;
11078;SDS011;5592;49.234;7.268;2022-11-21T06:13:51;4.57;;;1.93;;
11078;SDS011;5592;49.234;7.268;2022-11-21T06:16:17;5.90;;;1.87;;
11078;SDS011;5592;49.234;7.268;2022-11-21T06:18:47;7.43;;;1.93;;
11078;SDS011;5592;49.234;7.268;2022-11-21T06:21:21;6.70;;;1.60;;
11078;SDS011;5592;49.234;7.268;2022-11-21T06:23:55;7.77;;;1.83;;
11078;SDS011;5592;49.234;7.268;2022-11-21T06:26:23;6.83;;;1.73;;
11078;SDS011;5592;49.234;7.268;2022-11-21T06:28:50;5.33;;;1.77;;
11078;SDS011;5592;49.234;7.268;2022-11-21T06:31:17;5.60;;;1.73;;
11078;SDS011;5592;49.234;7.268;2022-11-21T06:33:50;5.67;;;1.70;;
11078;SDS011;5592;49.234;7.268;2022-11-21T06:36:17;8.37;;;2.07;;
11078;SDS011;5592;49.234;7.268;2022-11-21T06:38:43;5.43;;;2.10;;
11078;SDS011;5592;49.234;7.268;2022-11-21T06:41:10;8.00;;;2.53;;
11078;SDS011;5592;49.234;7.268;2022-11-21T06:43:37;9.93;;;2.10;;
11078;SDS011;5592;49.234;7.268;2022-11-21T06:46:03;5.60;;;1.80;;
11078;SDS011;5592;49.234;7.268;2022-11-21T06:48:30;8.30;;;2.03;;
11078;SDS011;5592;49.234;7.268;2022-11-21T06:51:02;3.03;;;1.87;;
11078;SDS011;5592;49.234;7.268;2022-11-21T06:53:28;11.60;;;2.43;;
11078;SDS011;5592;49.234;7.268;2022-11-21T06:55:56;6.67;;;2.30;;
11078;SDS011;5592;49.234;7.268;2022-11-21T06:58:23;6.47;;;2.83;;
11078;SDS011;5592;49.234;7.268;2022-11-21T07:00:49;5.87;;;1.87;;
11078;SDS011;5592;49.234;7.268;2022-11-21T07:03:15;6.63;;;2.30;;
11078;SDS011;5592;49.234;7.268;2022-11-21T07:05:40;3.20;;;1.70;;
11078;SDS011;5592;49.234;7.268;2022-11-21T07:08:06;8.93;;;2.50;;
11078;SDS011;5592;49.234;7.268;2022-11-21T07:10:33;10.13;;;2.57;;
11078;SDS011;5592;49.234;7.268;2022-11-21T07:12:59;23.80;;;3.23;;
11078;SDS011;5592;49.234;7.268;2022-11-21T07:15:44;10.53;;;1.80;;
11078;SDS011;5592;49.234;7.268;2022-11-21T07:18:11;4.53;;;1.97;;
11078;SDS011;5592;49.234;7.268;2022-11-21T07:20:39;12.03;;;2.40;;
11078;SDS011;5592;49.234;7.268;2022-11-21T07:23:06;6.17;;;2.10;;
11078;SDS011;5592;49.234;7.268;2022-11-21T07:25:32;13.00;;;2.57;;
11078;SDS011;5592;49.234;7.268;2022-11-21T07:27:58;16.63;;;2.90;;
11078;SDS011;5592;49.234;7.268;2022-11-21T07:30:27;9.33;;;2.60;;
11078;SDS011;5592;49.234;7.268;2022-11-21T07:32:54;12.93;;;2.03;;
11078;SDS011;5592;49.234;7.268;2022-11-21T07:35:24;9.90;;;2.70;;
11078;SDS011;5592;49.234;7.268;2022-11-21T07:37:51;7.20;;;2.57;;
11078;SDS011;5592;49.234;7.268;2022-11-21T07:40:16;10.63;;;2.40;;
11078;SDS011;5592;49.234;7.268;2022-11-21T07:42:42;8.47;;;2.10;;
11078;SDS011;5592;49.234;7.268;2022-11-21T07:45:08;4.07;;;1.73;;
11078;SDS011;5592;49.234;7.268;2022-11-21T07:47:34;6.03;;;2.00;;
11078;SDS011;5592;49.234;7.268;2022-11-21T07:50:00;7.73;;;3.00;;
11078;SDS011;5592;49.234;7.268;2022-11-21T07:52:25;9.33;;;2.33;;
11078;SDS011;5592;49.234;7.268;2022-11-21T07:54:54;9.30;;;1.83;;
11078;SDS011;5592;49.234;7.268;2022-11-21T07:57:22;14.13;;;2.60;;
11078;SDS011;5592;49.234;7.268;2022-11-21T07:59:48;12.77;;;2.33;;
11078;SDS011;5592;49.234;7.268;2022-11-21T08:02:21;10.40;;;2.40;;
11078;SDS011;5592;49.234;7.268;2022-11-21T08:04:49;11.67;;;2.30;;
11078;SDS011;5592;49.234;7.268;2022-11-21T08:07:15;7.63;;;2.40;;
11078;SDS011;5592;49.234;7.268;2022-11-21T08:09:42;14.33;;;2.70;;
11078;SDS011;5592;49.234;7.268;2022-11-21T08:12:10;11.30;;;2.17;;
11078;SDS011;5592;49.234;7.268;2022-11-21T08:14:36;12.00;;;2.33;;
11078;SDS011;5592;49.234;7.268;2022-11-21T08:17:02;10.83;;;2.50;;
11078;SDS011;5592;49.234;7.268;2022-11-21T08:19:28;11.30;;;2.80;;
11078;SDS011;5592;49.234;7.268;2022-11-21T08:21:59;12.97;;;2.13;;
11078;SDS011;5592;49.234;7.268;2022-11-21T08:24:25;10.10;;;2.73;;
11078;SDS011;5592;49.234;7.268;2022-11-21T08:26:51;13.57;;;2.63;;
11078;SDS011;5592;49.234;7.268;2022-11-21T08:29:17;7.57;;;2.80;;
11078;SDS011;5592;49.234;7.268;2022-11-21T08:31:43;11.23;;;2.43;;
11078;SDS011;5592;49.234;7.268;2022-11-21T08:34:09;11.63;;;2.50;;
11078;SDS011;5592;49.234;7.268;2022-11-21T08:36:35;6.37;;;2.23;;
11078;SDS011;5592;49.234;7.268;2022-11-21T08:39:01;8.57;;;2.40;;
11078;SDS011;5592;49.234;7.268;2022-11-21T08:41:27;9.97;;;2.20;;
11078;SDS011;5592;49.234;7.268;2022-11-21T08:44:12;11.77;;;2.17;;
11078;SDS011;5592;49.234;7.268;2022-11-21T08:46:37;14.30;;;2.87;;
11078;SDS011;5592;49.234;7.268;2022-11-21T08:49:03;6.43;;;1.90;;
11078;SDS011;5592;49.234;7.268;2022-11-21T08:51:29;6.20;;;2.13;;
11078;SDS011;5592;49.234;7.268;2022-11-21T08:53:58;12.20;;;2.83;;
11078;SDS011;5592;49.234;7.268;2022-11-21T08:56:23;16.30;;;3.00;;
11078;SDS011;5592;49.234;7.268;2022-11-21T08:58:49;13.53;;;2.77;;
11078;SDS011;5592;49.234;7.268;2022-11-21T09:01:15;9.93;;;2.20;;
11078;SDS011;5592;49.234;7.268;2022-11-21T09:03:41;8.30;;;2.63;;
11078;SDS011;5592;49.234;7.268;2022-11-21T09:06:08;20.40;;;2.83;;
11078;SDS011;5592;49.234;7.268;2022-11-21T09:08:34;13.67;;;2.97;;
11078;SDS011;5592;49.234;7.268;2022-11-21T09:11:03;11.07;;;2.30;;
11078;SDS011;5592;49.234;7.268;2022-11-21T09:13:30;15.03;;;2.80;;
11078;SDS011;5592;49.234;7.268;2022-11-21T09:15:58;7.93;;;2.27;;
11078;SDS011;5592;49.234;7.268;2022-11-21T09:18:44;8.90;;;2.53;;
11078;SDS011;5592;49.234;7.268;2022-11-21T09:21:18;10.70;;;2.47;;
11078;SDS011;5592;49.234;7.268;2022-11-21T09:23:44;10.67;;;2.60;;
11078;SDS011;5592;49.234;7.268;2022-11-21T09:26:10;10.30;;;2.10;;
11078;SDS011;5592;49.234;7.268;2022-11-21T09:28:36;12.60;;;2.60;;
11078;SDS011;5592;49.234;7.268;2022-11-21T09:31:02;16.00;;;2.80;;
11078;SDS011;5592;49.234;7.268;2022-11-21T09:33:28;9.83;;;2.73;;
11078;SDS011;5592;49.234;7.268;2022-11-21T09:35:56;11.50;;;2.67;;
11078;SDS011;5592;49.234;7.268;2022-11-21T09:38:22;9.20;;;3.23;;
11078;SDS011;5592;49.234;7.268;2022-11-21T09:40:50;12.40;;;2.87;;
11078;SDS011;5592;49.234;7.268;2022-11-21T09:46:08;9.03;;;4.03;;
11078;SDS011;5592;49.234;7.268;2022-11-21T09:51:13;16.33;;;4.77;;
11078;SDS011;5592;49.234;7.268;2022-11-21T09:56:28;8.70;;;3.80;;
11078;SDS011;5592;49.234;7.268;2022-11-21T09:59:06;14.70;;;4.73;;
11078;SDS011;5592;49.234;7.268;2022-11-21T10:01:43;22.33;;;5.27;;
11078;SDS011;5592;49.234;7.268;2022-11-21T10:04:09;8.53;;;4.10;;
11078;SDS011;5592;49.234;7.268;2022-11-21T10:06:41;23.30;;;3.80;;
11078;SDS011;5592;49.234;7.268;2022-11-21T10:29:40;6.63;;;3.00;;
11078;SDS011;5592;49.234;7.268;2022-11-21T10:32:35;11.37;;;3.70;;
11078;SDS011;5592;49.234;7.268;2022-11-21T10:35:16;9.90;;;2.80;;
11078;SDS011;5592;49.234;7.268;2022-11-21T10:37:48;9.10;;;2.97;;
11078;SDS011;5592;49.234;7.268;2022-11-21T10:40:38;12.00;;;3.20;;
11078;SDS011;5592;49.234;7.268;2022-11-21T10:46:27;11.57;;;2.53;;
11078;SDS011;5592;49.234;7.268;2022-11-21T10:49:00;14.27;;;3.23;;
11078;SDS011;5592;49.234;7.268;2022-11-21T10:51:39;10.07;;;3.10;;
11078;SDS011;5592;49.234;7.268;2022-11-21T10:54:21;13.20;;;2.73;;
11078;SDS011;5592;49.234;7.268;2022-11-21T10:57:10;8.20;;;2.90;;
11078;SDS011;5592;49.234;7.268;2022-11-21T10:59:37;13.53;;;2.60;;
11078;SDS011;5592;49.234;7.268;2022-11-21T11:04:38;14.33;;;3.10;;
11078;SDS011;5592;49.234;7.268;2022-11-21T11:09:54;11.37;;;2.67;;
11078;SDS011;5592;49.234;7.268;2022-11-21T11:12:47;10.43;;;2.70;;
11078;SDS011;5592;49.234;7.268;2022-11-21T11:15:33;12.97;;;3.10;;
11078;SDS011;5592;49.234;7.268;2022-11-21T11:18:00;10.03;;;3.50;;
11078;SDS011;5592;49.234;7.268;2022-11-21T11:20:38;13.10;;;3.30;;
11078;SDS011;5592;49.234;7.268;2022-11-21T11:23:21;9.27;;;2.53;;
11078;SDS011;5592;49.234;7.268;2022-11-21T11:25:50;11.10;;;2.70;;
11078;SDS011;5592;49.234;7.268;2022-11-21T11:28:24;15.17;;;2.50;;
11078;SDS011;5592;49.234;7.268;2022-11-21T11:30:51;8.27;;;2.40;;
11078;SDS011;5592;49.234;7.268;2022-11-21T11:33:28;9.07;;;2.60;;
11078;SDS011;5592;49.234;7.268;2022-11-21T11:38:37;7.43;;;2.77;;
11078;SDS011;5592;49.234;7.268;2022-11-21T11:41:12;7.77;;;1.73;;
11078;SDS011;5592;49.234;7.268;2022-11-21T11:44:20;13.40;;;2.77;;
11078;SDS011;5592;49.234;7.268;2022-11-21T11:47:18;13.87;;;2.83;;
11078;SDS011;5592;49.234;7.268;2022-11-21T11:49:54;6.20;;;2.57;;
11078;SDS011;5592;49.234;7.268;2022-11-21T11:53:00;8.30;;;2.50;;
11078;SDS011;5592;49.234;7.268;2022-11-21T11:58:38;8.10;;;1.63;;
11078;SDS011;5592;49.234;7.268;2022-11-21T12:12:35;16.57;;;2.30;;
11078;SDS011;5592;49.234;7.268;2022-11-21T12:15:14;8.10;;;2.43;;
11078;SDS011;5592;49.234;7.268;2022-11-21T12:26:19;10.83;;;2.30;;
11078;SDS011;5592;49.234;7.268;2022-11-21T12:32:08;8.20;;;2.20;;
11078;SDS011;5592;49.234;7.268;2022-11-21T12:38:07;15.53;;;2.27;;
11078;SDS011;5592;49.234;7.268;2022-11-21T12:41:00;9.33;;;2.33;;
11078;SDS011;5592;49.234;7.268;2022-11-21T12:46:57;8.67;;;2.87;;
11078;SDS011;5592;49.234;7.268;2022-11-21T12:52:47;11.40;;;3.77;;
11078;SDS011;5592;49.234;7.268;2022-11-21T12:55:40;13.93;;;3.33;;
11078;SDS011;5592;49.234;7.268;2022-11-21T12:58:07;6.80;;;2.83;;
11078;SDS011;5592;49.234;7.268;2022-11-21T13:06:30;11.70;;;3.13;;
11078;SDS011;5592;49.234;7.268;2022-11-21T13:09:00;5.43;;;2.10;;
11078;SDS011;5592;49.234;7.268;2022-11-21T13:25:00;6.13;;;1.97;;
11078;SDS011;5592;49.234;7.268;2022-11-21T13:27:42;9.30;;;2.10;;
11078;SDS011;5592;49.234;7.268;2022-11-21T13:32:51;10.93;;;2.63;;
11078;SDS011;5592;49.234;7.268;2022-11-21T13:45:47;14.60;;;2.53;;
11078;SDS011;5592;49.234;7.268;2022-11-21T13:51:12;15.70;;;2.67;;
11078;SDS011;5592;49.234;7.268;2022-11-21T13:57:07;13.43;;;2.50;;
11078;SDS011;5592;49.234;7.268;2022-11-21T13:59:53;10.83;;;2.33;;
11078;SDS011;5592;49.234;7.268;2022-11-21T14:08:23;7.80;;;2.07;;
11078;SDS011;5592;49.234;7.268;2022-11-21T14:10:54;8.10;;;2.20;;
11078;SDS011;5592;49.234;7.268;2022-11-21T14:13:22;9.70;;;3.37;;
11078;SDS011;5592;49.234;7.268;2022-11-21T14:18:26;16.03;;;2.73;;
11078;SDS011;5592;49.234;7.268;2022-11-21T14:20:53;11.97;;;2.80;;
11078;SDS011;5592;49.234;7.268;2022-11-21T14:23:21;6.60;;;2.20;;
11078;SDS011;5592;49.234;7.268;2022-11-21T14:25:52;9.63;;;2.57;;
11078;SDS011;5592;49.234;7.268;2022-11-21T14:28:33;12.10;;;2.20;;
11078;SDS011;5592;49.234;7.268;2022-11-21T14:30:59;7.33;;;2.40;;
11078;SDS011;5592;49.234;7.268;2022-11-21T14:36:05;9.47;;;2.03;;
11078;SDS011;5592;49.234;7.268;2022-11-21T14:44:35;4.33;;;1.70;;
11078;SDS011;5592;49.234;7.268;2022-11-21T14:49:11;11.27;;;2.97;;
11078;SDS011;5592;49.234;7.268;2022-11-21T14:51:46;11.63;;;2.23;;
11078;SDS011;5592;49.234;7.268;2022-11-21T14:54:18;8.17;;;2.30;;
11078;SDS011;5592;49.234;7.268;2022-11-21T14:56:47;12.27;;;3.10;;
11078;SDS011;5592;49.234;7.268;2022-11-21T14:59:21;13.40;;;3.77;;
11078;SDS011;5592;49.234;7.268;2022-11-21T15:01:59;10.13;;;2.37;;
11078;SDS011;5592;49.234;7.268;2022-11-21T15:04:50;8.00;;;2.27;;
11078;SDS011;5592;49.234;7.268;2022-11-21T15:07:24;15.73;;;4.83;;
11078;SDS011;5592;49.234;7.268;2022-11-21T15:09:51;7.10;;;2.10;;
11078;SDS011;5592;49.234;7.268;2022-11-21T15:15:01;12.40;;;2.70;;
11078;SDS011;5592;49.234;7.268;2022-11-21T15:17:36;8.70;;;2.63;;
11078;SDS011;5592;49.234;7.268;2022-11-21T15:20:15;9.20;;;2.40;;
11078;SDS011;5592;49.234;7.268;2022-11-21T15:22:45;10.50;;;2.63;;
11078;SDS011;5592;49.234;7.268;2022-11-21T15:27:44;9.63;;;2.03;;
11078;SDS011;5592;49.234;7.268;2022-11-21T15:38:13;10.80;;;2.50;;
11078;SDS011;5592;49.234;7.268;2022-11-21T15:43:34;9.73;;;2.67;;
11078;SDS011;5592;49.234;7.268;2022-11-21T15:46:16;8.00;;;2.80;;
11078;SDS011;5592;49.234;7.268;2022-11-21T15:48:55;13.10;;;2.57;;
11078;SDS011;5592;49.234;7.268;2022-11-21T15:53:56;21.20;;;3.47;;
11078;SDS011;5592;49.234;7.268;2022-11-21T15:56:22;11.73;;;2.67;;
11078;SDS011;5592;49.234;7.268;2022-11-21T15:58:48;9.53;;;2.90;;
11078;SDS011;5592;49.234;7.268;2022-11-21T16:01:20;14.13;;;3.17;;
11078;SDS011;5592;49.234;7.268;2022-11-21T16:03:47;7.77;;;3.10;;
11078;SDS011;5592;49.234;7.268;2022-11-21T16:06:15;13.50;;;4.50;;
11078;SDS011;5592;49.234;7.268;2022-11-21T16:08:41;24.33;;;7.27;;
11078;SDS011;5592;49.234;7.268;2022-11-21T16:11:09;22.67;;;6.70;;
11078;SDS011;5592;49.234;7.268;2022-11-21T16:13:41;11.97;;;4.20;;
11078;SDS011;5592;49.234;7.268;2022-11-21T16:16:09;15.47;;;3.80;;
11078;SDS011;5592;49.234;7.268;2022-11-21T16:18:35;11.70;;;3.70;;
11078;SDS011;5592;49.234;7.268;2022-11-21T16:21:05;10.90;;;3.47;;
11078;SDS011;5592;49.234;7.268;2022-11-21T16:23:31;7.37;;;2.20;;
11078;SDS011;5592;49.234;7.268;2022-11-21T16:25:57;5.27;;;3.00;;
11078;SDS011;5592;49.234;7.268;2022-11-21T16:28:23;7.40;;;2.50;;
11078;SDS011;5592;49.234;7.268;2022-11-21T16:30:48;6.27;;;2.10;;
11078;SDS011;5592;49.234;7.268;2022-11-21T16:33:14;11.43;;;2.70;;
11078;SDS011;5592;49.234;7.268;2022-11-21T16:35:39;6.97;;;2.50;;
11078;SDS011;5592;49.234;7.268;2022-11-21T16:38:08;6.17;;;2.30;;
11078;SDS011;5592;49.234;7.268;2022-11-21T16:40:35;9.23;;;2.47;;
11078;SDS011;5592;49.234;7.268;2022-11-21T16:43:10;13.10;;;3.33;;
11078;SDS011;5592;49.234;7.268;2022-11-21T16:45:37;9.47;;;2.40;;
11078;SDS011;5592;49.234;7.268;2022-11-21T16:48:04;8.50;;;3.00;;
11078;SDS011;5592;49.234;7.268;2022-11-21T16:50:30;10.30;;;3.10;;
11078;SDS011;5592;49.234;7.268;2022-11-21T16:52:56;10.53;;;2.50;;
11078;SDS011;5592;49.234;7.268;2022-11-21T16:55:22;7.43;;;2.70;;
11078;SDS011;5592;49.234;7.268;2022-11-21T16:57:48;8.67;;;2.00;;
11078;SDS011;5592;49.234;7.268;2022-11-21T17:00:14;11.50;;;2.70;;
11078;SDS011;5592;49.234;7.268;2022-11-21T17:02:40;10.47;;;2.83;;
11078;SDS011;5592;49.234;7.268;2022-11-21T17:05:08;5.50;;;2.33;;
11078;SDS011;5592;49.234;7.268;2022-11-21T17:07:34;7.33;;;2.53;;
11078;SDS011;5592;49.234;7.268;2022-11-21T17:10:01;6.70;;;2.57;;
11078;SDS011;5592;49.234;7.268;2022-11-21T17:12:27;8.80;;;2.00;;
11078;SDS011;5592;49.234;7.268;2022-11-21T17:14:52;11.97;;;2.80;;
11078;SDS011;5592;49.234;7.268;2022-11-21T17:17:18;6.47;;;2.23;;
11078;SDS011;5592;49.234;7.268;2022-11-21T17:19:44;6.53;;;2.07;;
11078;SDS011;5592;49.234;7.268;2022-11-21T17:22:09;9.73;;;2.47;;
11078;SDS011;5592;49.234;7.268;2022-11-21T17:24:35;10.30;;;2.50;;
11078;SDS011;5592;49.234;7.268;2022-11-21T17:27:00;6.37;;;2.33;;
11078;SDS011;5592;49.234;7.268;2022-11-21T17:29:27;6.60;;;2.30;;
11078;SDS011;5592;49.234;7.268;2022-11-21T17:31:54;9.97;;;3.03;;
11078;SDS011;5592;49.234;7.268;2022-11-21T17:34:19;10.17;;;3.70;;
11078;SDS011;5592;49.234;7.268;2022-11-21T17:36:45;8.33;;;3.00;;
11078;SDS011;5592;49.234;7.268;2022-11-21T17:39:11;13.17;;;2.70;;
11078;SDS011;5592;49.234;7.268;2022-11-21T17:41:37;12.13;;;3.20;;
11078;SDS011;5592;49.234;7.268;2022-11-21T17:44:03;15.83;;;3.07;;
11078;SDS011;5592;49.234;7.268;2022-11-21T17:46:30;11.77;;;2.90;;
11078;SDS011;5592;49.234;7.268;2022-11-21T17:48:56;4.87;;;2.37;;